Time;durP1;ratioP1;P1;durP2;ratioP2;P2;SDS_P1;SDS_P2;PMS_P1;PMS_P2;Temp;Humidity;BMP_temperature;BMP_pressure;BME280_temperature;BME280_humidity;BME280_pressure;Samples;Min_cycle;Max_cycle;Signal;HPM_P1;HPM_P2
2022/09/27 00:00:37;;;;;;;24.98;4.55;;;;;;;10.95;74.99;100097.13;5048329;28;20499;-44
2022/09/27 00:03:06;;;;;;;26.90;6.35;;;;;;;10.95;74.98;100082.47;5045511;28;20034;-44
2022/09/27 00:05:33;;;;;;;19.65;3.67;;;;;;;10.96;75.02;100093.19;5045517;28;20128;-49
2022/09/27 00:08:00;;;;;;;25.38;5.53;;;;;;;10.97;75.19;100105.06;5032683;28;20045;-44
2022/09/27 00:10:27;;;;;;;16.60;4.03;;;;;;;10.97;75.32;100097.56;5050894;28;20051;-46
2022/09/27 00:12:54;;;;;;;21.75;5.15;;;;;;;10.97;75.29;100099.53;5050489;28;20053;-46
2022/09/27 00:15:21;;;;;;;18.73;5.95;;;;;;;10.95;75.34;100102.66;5048242;28;20059;-48
2022/09/27 00:17:51;;;;;;;20.20;3.63;;;;;;;10.92;75.68;100106.16;5040828;28;20495;-44
2022/09/27 00:20:19;;;;;;;28.27;4.15;;;;;;;10.91;75.60;100090.69;5052605;28;20060;-45
2022/09/27 00:22:47;;;;;;;25.90;4.78;;;;;;;10.92;75.44;100083.19;5036884;28;20063;-44
2022/09/27 00:25:15;;;;;;;32.45;5.50;;;;;;;10.87;75.63;100077.94;5046342;28;20091;-45
2022/09/27 00:27:42;;;;;;;26.08;6.13;;;;;;;10.86;75.37;100085.44;5046939;28;21027;-46
2022/09/27 00:30:10;;;;;;;14.25;3.35;;;;;;;10.88;75.73;100090.63;5050917;28;20076;-45
2022/09/27 00:32:36;;;;;;;19.75;5.28;;;;;;;10.87;75.79;100075.19;5061082;28;20045;-46
2022/09/27 00:35:04;;;;;;;18.20;3.80;;;;;;;10.88;75.85;100082.34;5033180;28;20076;-44
2022/09/27 00:37:31;;;;;;;18.60;3.72;;;;;;;10.87;75.86;100083.47;5052443;28;20496;-44
2022/09/27 00:39:58;;;;;;;25.98;4.20;;;;;;;10.87;75.93;100075.97;5046379;28;20455;-44
2022/09/27 00:42:24;;;;;;;26.23;5.93;;;;;;;10.88;76.32;100074.03;5032213;28;20061;-45
2022/09/27 00:45:19;;;;;;;25.27;4.43;;;;;;;10.87;75.99;100059.38;5032333;28;20042;-46
2022/09/27 00:47:53;;;;;;;21.58;5.50;;;;;;;10.89;76.09;100064.53;5032129;28;20506;-46
2022/09/27 00:50:36;;;;;;;23.10;4.15;;;;;;;10.88;76.00;100063.72;5048275;28;20049;-44
2022/09/27 00:53:11;;;;;;;22.98;4.80;;;;;;;10.86;76.17;100049.44;5031615;28;20049;-47
2022/09/27 00:56:12;;;;;;;23.48;4.00;;;;;;;10.86;76.35;100056.94;5048884;28;20041;-46
2022/09/27 00:58:47;;;;;;;18.00;3.78;;;;;;;10.86;76.24;100049.44;5043588;28;20560;-48
2022/09/27 01:01:13;;;;;;;17.85;3.65;;;;;;;10.89;76.17;100068.09;5042659;28;20127;-45
2022/09/27 01:03:49;;;;;;;25.88;4.72;;;;;;;10.90;76.38;100064.19;5049792;28;20495;-44
2022/09/27 01:06:20;;;;;;;20.27;4.53;;;;;;;10.91;76.51;100067.72;5050316;28;20558;-44
2022/09/27 01:08:48;;;;;;;23.03;4.97;;;;;;;10.94;76.48;100061.47;5044452;28;20070;-44
2022/09/27 01:11:25;;;;;;;36.05;9.20;;;;;;;10.96;76.56;100064.69;5047701;28;20719;-44
2022/09/27 01:14:39;;;;;;;20.67;4.07;;;;;;;10.94;76.88;100058.69;5048430;28;20533;-44
2022/09/27 01:17:25;;;;;;;27.40;4.63;;;;;;;10.92;76.81;100061.03;5012871;28;20053;-49
2022/09/27 01:20:48;;;;;;;19.13;4.15;;;;;;;10.90;77.12;100057.84;5042503;28;20479;-46
2022/09/27 01:24:03;;;;;;;32.42;6.15;;;;;;;10.88;77.46;100049.09;4987382;28;20546;-44
2022/09/27 01:27:08;;;;;;;24.55;6.50;;;;;;;10.86;77.47;100046.69;4966760;28;20512;-44
2022/09/27 01:30:09;;;;;;;29.98;6.85;;;;;;;10.84;77.83;100032.41;4946106;28;20052;-44
2022/09/27 01:32:44;;;;;;;25.90;6.60;;;;;;;10.83;77.88;100030.78;4948266;28;20589;-44
2022/09/27 01:35:10;;;;;;;31.17;5.55;;;;;;;10.84;77.80;100029.63;5021350;28;20529;-44
2022/09/27 01:37:43;;;;;;;30.00;5.13;;;;;;;10.85;78.05;100013.81;5047354;28;20521;-44
2022/09/27 01:40:32;;;;;;;21.33;4.68;;;;;;;10.85;78.13;100013.81;5030897;28;20126;-44
2022/09/27 01:43:11;;;;;;;31.05;6.93;;;;;;;10.85;78.31;100017.41;5034478;28;20684;-48
2022/09/27 01:45:55;;;;;;;29.73;5.95;;;;;;;10.86;78.28;99996.84;5035979;28;20055;-44
2022/09/27 01:48:23;;;;;;;20.95;3.88;;;;;;;10.86;78.17;99996.03;5048017;28;20577;-45
2022/09/27 01:51:12;;;;;;;36.15;5.07;;;;;;;10.84;78.31;100007.47;5045593;28;20049;-47
2022/09/27 01:53:51;;;;;;;35.35;8.18;;;;;;;10.85;78.25;99994.44;5049703;28;20135;-44
2022/09/27 01:56:26;;;;;;;27.13;5.95;;;;;;;10.84;78.29;99998.38;5045643;28;20043;-45
2022/09/27 01:59:00;;;;;;;30.85;5.47;;;;;;;10.86;78.13;99984.94;5023648;28;20632;-46
2022/09/27 02:01:31;;;;;;;27.50;4.90;;;;;;;10.86;78.00;99977.44;5039333;28;20053;-44
2022/09/27 02:04:00;;;;;;;24.02;4.78;;;;;;;10.91;78.02;99965.28;5036205;28;20176;-44
2022/09/27 02:06:33;;;;;;;29.15;7.63;;;;;;;10.92;77.87;99980.72;5032831;28;20502;-44
2022/09/27 02:09:18;;;;;;;23.08;4.93;;;;;;;10.91;77.93;99985.47;5028753;28;20053;-45
2022/09/27 02:11:51;;;;;;;18.95;5.32;;;;;;;10.94;77.79;99972.84;5030300;28;20402;-46
2022/09/27 02:14:26;;;;;;;21.42;3.83;;;;;;;10.94;77.75;99972.84;5029454;28;20061;-44
2022/09/27 02:17:31;;;;;;;29.58;5.93;;;;;;;10.96;77.79;99973.31;5036887;28;20132;-44
2022/09/27 02:20:16;;;;;;;26.50;5.82;;;;;;;10.95;77.71;99985.53;5017667;28;20502;-45
2022/09/27 02:23:03;;;;;;;26.42;4.55;;;;;;;10.97;77.86;99974.88;5034630;28;20049;-44
2022/09/27 02:25:40;;;;;;;27.77;4.90;;;;;;;10.95;77.73;99980.00;5029950;28;20045;-45
2022/09/27 02:28:25;;;;;;;27.42;4.65;;;;;;;10.94;77.82;99972.84;5030809;28;20491;-44
2022/09/27 02:30:52;;;;;;;32.50;7.00;;;;;;;10.92;77.66;99956.63;5029378;28;20044;-45
2022/09/27 02:33:23;;;;;;;34.33;6.03;;;;;;;10.93;77.62;99943.56;5035630;28;20491;-44
2022/09/27 02:35:50;;;;;;;30.77;6.00;;;;;;;10.91;77.66;99937.56;5038521;28;20065;-44
2022/09/27 02:38:18;;;;;;;28.67;4.68;;;;;;;10.91;77.80;99955.00;5027630;28;20395;-45
2022/09/27 02:40:46;;;;;;;23.70;5.28;;;;;;;10.91;77.82;99957.75;5035335;28;20037;-44
2022/09/27 02:43:16;;;;;;;29.17;5.95;;;;;;;10.93;77.76;99968.50;5033613;28;20152;-45
2022/09/27 02:45:46;;;;;;;20.92;5.40;;;;;;;10.93;77.91;99957.41;5028571;28;20044;-45
2022/09/27 02:48:12;;;;;;;28.55;5.45;;;;;;;10.91;77.99;99943.91;5028943;28;20060;-46
2022/09/27 02:51:07;;;;;;;22.55;5.53;;;;;;;10.91;77.85;99959.72;5009640;28;20045;-45
2022/09/27 02:53:47;;;;;;;24.48;5.57;;;;;;;10.90;77.91;99941.53;5031361;28;20091;-48
2022/09/27 02:56:33;;;;;;;34.25;5.40;;;;;;;10.89;78.08;99946.25;5031430;28;20045;-44
2022/09/27 02:59:31;;;;;;;25.20;5.20;;;;;;;10.90;78.10;99924.91;5041097;28;20059;-44
2022/09/27 03:02:28;;;;;;;38.30;8.00;;;;;;;10.90;78.28;99936.00;5067586;22;20470;-53
2022/09/27 03:05:01;;;;;;;21.42;5.75;;;;;;;10.89;78.18;99918.56;5045560;28;20049;-43
2022/09/27 03:07:28;;;;;;;37.92;9.32;;;;;;;10.89;78.18;99929.66;5045470;28;20052;-44
2022/09/27 03:09:56;;;;;;;26.70;4.30;;;;;;;10.91;78.15;99916.22;5045882;28;20041;-46
2022/09/27 03:12:26;;;;;;;23.25;5.70;;;;;;;10.92;78.17;99914.25;5047176;28;20051;-43
2022/09/27 03:14:58;;;;;;;24.50;4.75;;;;;;;10.94;78.12;99909.16;5041500;28;20110;-44
2022/09/27 03:17:26;;;;;;;33.78;5.60;;;;;;;10.95;78.06;99911.56;5043321;28;20140;-47
2022/09/27 03:19:52;;;;;;;21.35;5.13;;;;;;;10.94;78.21;99892.53;5043850;28;20478;-45
2022/09/27 03:22:19;;;;;;;21.17;4.40;;;;;;;10.96;78.07;99891.00;5042352;28;20056;-44
2022/09/27 03:24:46;;;;;;;28.90;5.35;;;;;;;10.98;77.95;99893.41;5044652;28;20409;-44
2022/09/27 03:27:13;;;;;;;23.25;4.53;;;;;;;11.01;78.03;99901.00;5047361;28;20075;-44
2022/09/27 03:29:39;;;;;;;25.42;4.53;;;;;;;11.00;78.11;99889.09;5046679;28;20483;-44
2022/09/27 03:32:06;;;;;;;22.23;5.20;;;;;;;11.03;77.92;99890.34;5047171;28;20059;-49
2022/09/27 03:34:33;;;;;;;39.88;7.63;;;;;;;11.03;78.14;99893.09;5045310;28;20045;-43
2022/09/27 03:37:00;;;;;;;27.27;6.45;;;;;;;10.99;78.15;99895.81;5047073;28;20087;-51
2022/09/27 03:39:27;;;;;;;33.67;7.05;;;;;;;10.98;78.30;99894.22;5039082;28;20090;-46
2022/09/27 03:41:54;;;;;;;31.05;4.93;;;;;;;10.97;78.41;99881.53;5047320;28;20033;-45
2022/09/27 03:44:21;;;;;;;25.17;4.63;;;;;;;10.98;78.42;99883.13;5047630;28;20067;-47
2022/09/27 03:46:48;;;;;;;27.15;4.75;;;;;;;10.97;78.46;99887.06;5042205;28;20415;-44
2022/09/27 03:49:14;;;;;;;21.25;4.00;;;;;;;10.95;78.71;99894.94;5042096;28;20055;-50
2022/09/27 03:51:42;;;;;;;17.63;4.10;;;;;;;10.95;78.65;99892.19;5046954;28;20049;-44
2022/09/27 03:54:09;;;;;;;29.60;5.25;;;;;;;10.97;78.47;99875.19;5044668;28;20047;-44
2022/09/27 03:56:35;;;;;;;26.90;5.97;;;;;;;11.00;78.43;99868.91;5045571;28;20049;-43
2022/09/27 03:59:02;;;;;;;21.90;5.07;;;;;;;11.00;78.40;99880.78;5047973;28;20453;-44
2022/09/27 04:01:29;;;;;;;31.65;5.10;;;;;;;11.00;78.39;99878.03;5051459;28;20064;-46
2022/09/27 04:03:56;;;;;;;22.95;4.32;;;;;;;10.99;78.41;99859.00;5064412;28;20496;-44
2022/09/27 04:06:23;;;;;;;24.40;4.15;;;;;;;11.01;78.37;99859.44;5061228;28;20076;-45
2022/09/27 04:08:50;;;;;;;28.92;4.63;;;;;;;11.01;78.21;99859.44;5043170;28;20049;-47
2022/09/27 04:11:16;;;;;;;25.33;6.13;;;;;;;11.02;78.18;99852.72;5048356;28;20453;-44
2022/09/27 04:13:43;;;;;;;24.83;4.88;;;;;;;11.00;78.00;99863.38;5056451;28;20180;-46
2022/09/27 04:16:10;;;;;;;20.98;3.67;;;;;;;11.01;77.91;99867.75;5063222;28;20055;-44
2022/09/27 04:18:37;;;;;;;24.25;5.65;;;;;;;11.02;77.89;99874.88;5066501;28;20049;-43
2022/09/27 04:21:04;;;;;;;30.50;5.35;;;;;;;11.02;77.58;99872.91;5042069;28;20449;-44
2022/09/27 04:23:30;;;;;;;18.85;4.07;;;;;;;11.04;77.63;99861.44;5042593;28;20037;-47
2022/09/27 04:25:57;;;;;;;23.90;5.15;;;;;;;11.04;77.64;99864.22;5048599;28;20037;-44
2022/09/27 04:28:24;;;;;;;33.35;5.70;;;;;;;11.04;77.50;99877.28;5059142;28;20049;-47
2022/09/27 04:30:51;;;;;;;35.03;4.40;;;;;;;10.99;77.56;99857.03;5054036;28;20430;-46
2022/09/27 04:33:18;;;;;;;31.65;5.20;;;;;;;10.98;77.76;99860.19;5042711;28;20132;-44
2022/09/27 04:38:30;;;;;;;27.10;5.75;;;;;;;10.96;77.51;99862.53;5030819;28;20037;-44
2022/09/27 04:41:00;;;;;;;27.02;4.80;;;;;;;10.93;77.44;99852.19;5048229;28;20103;-45
2022/09/27 04:43:28;;;;;;;28.40;4.68;;;;;;;10.89;77.42;99846.56;5050278;28;20048;-46
2022/09/27 04:45:55;;;;;;;30.58;5.03;;;;;;;10.86;77.47;99850.06;5052443;28;20143;-45
2022/09/27 04:48:22;;;;;;;24.08;5.15;;;;;;;10.85;77.65;99861.53;5052311;28;20387;-44
2022/09/27 04:51:01;;;;;;;21.33;4.43;;;;;;;10.85;77.41;99867.06;5036040;28;20511;-44
2022/09/27 04:53:28;;;;;;;26.80;5.20;;;;;;;10.85;77.68;99862.34;5032300;28;20049;-47
2022/09/27 04:55:56;;;;;;;29.77;5.32;;;;;;;10.85;77.39;99862.34;5046389;28;20127;-52
2022/09/27 04:58:23;;;;;;;22.55;5.47;;;;;;;10.86;77.44;99863.91;5062243;28;20056;-44
2022/09/27 05:00:51;;;;;;;26.83;5.35;;;;;;;10.86;77.55;99852.03;5036570;28;20045;-43
2022/09/27 05:03:18;;;;;;;20.08;4.60;;;;;;;10.83;77.52;99863.84;5051224;28;20072;-44
2022/09/27 05:05:45;;;;;;;38.00;6.03;;;;;;;10.80;77.59;99850.75;5046282;28;20135;-45
2022/09/27 05:08:12;;;;;;;25.05;5.32;;;;;;;10.78;77.66;99873.25;5049274;28;20060;-45
2022/09/27 05:10:39;;;;;;;26.13;5.30;;;;;;;10.76;77.69;99853.47;5047933;28;20130;-44
2022/09/27 05:13:06;;;;;;;26.98;6.80;;;;;;;10.73;77.63;99864.44;5043782;28;20072;-49
2022/09/27 05:15:34;;;;;;;26.33;4.88;;;;;;;10.70;77.57;99856.88;5045698;28;20052;-47
2022/09/27 05:18:00;;;;;;;25.75;4.97;;;;;;;10.69;77.70;99858.06;5048914;28;20044;-47
2022/09/27 05:20:28;;;;;;;35.15;5.78;;;;;;;10.70;77.78;99854.91;5049592;28;20045;-46
2022/09/27 05:22:55;;;;;;;24.55;5.60;;;;;;;10.73;77.75;99864.44;5050951;28;20045;-45
2022/09/27 05:25:23;;;;;;;26.38;4.72;;;;;;;10.76;77.65;99858.19;5036674;28;20052;-44
2022/09/27 05:27:50;;;;;;;29.73;5.22;;;;;;;10.78;77.76;99864.97;5050296;28;20048;-44
2022/09/27 05:30:18;;;;;;;20.38;4.88;;;;;;;10.79;77.70;99851.91;5040034;28;20284;-44
2022/09/27 05:32:49;;;;;;;37.40;6.45;;;;;;;10.80;77.58;99853.53;5049835;28;20049;-44
2022/09/27 05:35:19;;;;;;;42.42;8.15;;;;;;;10.82;77.64;99853.97;5044307;28;20425;-45
2022/09/27 05:37:58;;;;;;;29.35;6.07;;;;;;;10.81;77.55;99855.91;5050554;28;20045;-46
2022/09/27 05:40:27;;;;;;;16.48;3.78;;;;;;;10.82;77.51;99859.50;5042350;28;20041;-44
2022/09/27 05:43:07;;;;;;;22.30;4.70;;;;;;;10.81;77.49;99849.56;5037820;28;20041;-44
2022/09/27 05:45:34;;;;;;;31.90;4.57;;;;;;;10.80;77.65;99853.53;5049753;28;20045;-43
2022/09/27 05:48:01;;;;;;;30.35;5.40;;;;;;;10.79;77.49;99857.47;5049044;28;20045;-49
2022/09/27 05:50:28;;;;;;;25.42;6.03;;;;;;;10.76;77.61;99844.34;5046913;28;20604;-44
2022/09/27 05:52:55;;;;;;;24.13;5.13;;;;;;;10.77;77.41;99843.19;5045364;28;20053;-46
2022/09/27 05:55:22;;;;;;;15.75;3.83;;;;;;;10.78;77.54;99847.53;5043413;28;20045;-48
2022/09/27 05:57:59;;;;;;;31.55;6.47;;;;;;;10.77;77.54;99841.22;5035519;28;20140;-46
2022/09/27 06:00:27;;;;;;;24.35;5.72;;;;;;;10.75;77.62;99832.47;5050078;28;20395;-43
2022/09/27 06:02:56;;;;;;;29.05;5.05;;;;;;;10.74;77.68;99838.38;5044968;28;20111;-44
2022/09/27 06:05:24;;;;;;;26.77;4.70;;;;;;;10.74;77.56;99832.84;5046134;28;20514;-43
2022/09/27 06:07:51;;;;;;;23.35;4.40;;;;;;;10.71;77.77;99842.69;5049502;28;20045;-43
2022/09/27 06:10:18;;;;;;;21.95;5.75;;;;;;;10.69;77.73;99824.84;5049968;28;20051;-44
2022/09/27 06:12:46;;;;;;;31.95;6.53;;;;;;;10.67;77.67;99827.19;5049159;28;20064;-51
2022/09/27 06:15:13;;;;;;;33.35;5.82;;;;;;;10.63;77.91;99832.66;5048380;28;20057;-46
2022/09/27 06:17:40;;;;;;;28.38;5.57;;;;;;;10.61;78.01;99834.19;5049532;28;20063;-45
2022/09/27 06:20:08;;;;;;;26.90;5.70;;;;;;;10.58;77.97;99830.19;5043129;28;20042;-45
2022/09/27 06:22:35;;;;;;;25.35;5.20;;;;;;;10.58;78.07;99830.19;5046199;28;20055;-48
2022/09/27 06:25:03;;;;;;;27.30;4.15;;;;;;;10.57;78.07;99831.34;5050226;28;20048;-44
2022/09/27 06:27:31;;;;;;;24.80;4.60;;;;;;;10.56;78.21;99827.00;5046110;28;20562;-43
2022/09/27 06:29:57;;;;;;;25.23;6.97;;;;;;;10.56;78.23;99831.72;5042839;28;20151;-45
2022/09/27 06:32:24;;;;;;;23.05;4.40;;;;;;;10.54;78.46;99828.53;5046883;28;20075;-44
2022/09/27 06:34:51;;;;;;;24.23;4.63;;;;;;;10.56;78.48;99829.75;5049022;28;20094;-45
2022/09/27 06:37:18;;;;;;;22.15;4.93;;;;;;;10.59;78.54;99831.78;5044020;28;20528;-44
2022/09/27 06:39:47;;;;;;;27.48;4.80;;;;;;;10.61;78.54;99828.66;5049474;28;20151;-49
2022/09/27 06:42:16;;;;;;;35.35;6.75;;;;;;;10.63;78.58;99837.38;5049707;28;20091;-44
2022/09/27 06:44:43;;;;;;;26.17;5.18;;;;;;;10.65;78.62;99835.03;5049742;28;20045;-49
2022/09/27 06:47:16;;;;;;;;;;;;;;;10.63;78.88;99834.63;5031788;28;20049;-44
2022/09/27 06:49:42;;;;;;;27.88;4.35;;;;;;;10.64;78.58;99833.47;5049715;28;19925;-46
2022/09/27 06:52:10;;;;;;;30.98;5.40;;;;;;;10.65;78.66;99835.03;5049349;28;20462;-46
2022/09/27 06:54:37;;;;;;;24.38;6.00;;;;;;;10.66;78.69;99833.88;5039488;28;20080;-44
2022/09/27 06:57:04;;;;;;;19.85;4.68;;;;;;;10.69;78.86;99824.84;5049327;28;20045;-43
2022/09/27 07:02:17;;;;;;;34.92;4.70;;;;;;;10.74;78.92;99830.06;5038870;28;20075;-44
2022/09/27 07:04:44;;;;;;;37.15;6.78;;;;;;;10.75;78.83;99826.94;5046239;28;20067;-45
2022/09/27 07:07:12;;;;;;;29.98;5.97;;;;;;;10.78;78.81;99825.38;5036017;28;20036;-44
2022/09/27 07:09:39;;;;;;;29.00;4.68;;;;;;;10.80;78.86;99815.53;5029387;28;20073;-44
2022/09/27 07:12:06;;;;;;;23.90;5.65;;;;;;;10.83;78.83;99814.81;5036186;28;20418;-49
2022/09/27 07:14:34;;;;;;;24.65;5.13;;;;;;;10.86;78.88;99821.56;5048210;28;20057;-48
2022/09/27 07:17:01;;;;;;;27.83;5.38;;;;;;;10.89;78.64;99823.59;5049078;28;20139;-44
2022/09/27 07:19:28;;;;;;;34.97;6.13;;;;;;;10.92;78.73;99820.09;5048786;28;20119;-44
2022/09/27 07:21:55;;;;;;;28.92;3.97;;;;;;;10.96;78.57;99813.44;5049143;28;20041;-44
2022/09/27 07:24:22;;;;;;;17.88;4.47;;;;;;;10.97;78.51;99817.81;5046401;28;20049;-46
2022/09/27 07:26:48;;;;;;;31.52;6.15;;;;;;;11.01;78.48;99812.38;5045495;28;20061;-45
2022/09/27 07:29:15;;;;;;;24.90;4.95;;;;;;;11.04;78.60;99819.91;5045673;28;20053;-48
2022/09/27 07:31:42;;;;;;;33.05;5.40;;;;;;;11.09;78.57;99816.84;5047588;28;20036;-43
2022/09/27 07:34:11;;;;;;;27.65;5.75;;;;;;;11.11;78.47;99820.03;5047489;28;20068;-44
2022/09/27 07:36:37;;;;;;;23.25;5.32;;;;;;;11.14;78.64;99824.03;5049741;28;20402;-45
2022/09/27 07:39:05;;;;;;;21.60;5.00;;;;;;;11.17;78.32;99815.78;5039010;28;20041;-45
2022/09/27 07:41:32;;;;;;;24.27;6.03;;;;;;;11.22;78.29;99817.44;5039889;28;20045;-45
2022/09/27 07:43:59;;;;;;;26.67;5.43;;;;;;;11.28;78.21;99819.50;5036034;28;20510;-47
2022/09/27 07:46:26;;;;;;;34.13;5.05;;;;;;;11.26;78.08;99816.31;5037064;28;20053;-54
2022/09/27 07:48:53;;;;;;;29.67;5.10;;;;;;;11.26;78.03;99798.88;5037927;28;20139;-45
2022/09/27 07:51:20;;;;;;;19.98;4.22;;;;;;;11.29;77.92;99812.81;5037076;28;20114;-44
2022/09/27 07:53:46;;;;;;;23.60;4.82;;;;;;;11.32;77.93;99809.28;5038109;28;20045;-43
2022/09/27 07:56:13;;;;;;;35.05;5.57;;;;;;;11.38;78.12;99798.69;5031634;28;20076;-44
2022/09/27 07:58:40;;;;;;;25.90;5.78;;;;;;;11.39;78.05;99801.06;5037163;28;20064;-47
2022/09/27 08:01:07;;;;;;;34.20;4.88;;;;;;;11.41;78.18;99801.50;5036864;28;20048;-45
2022/09/27 08:03:35;;;;;;;23.60;5.07;;;;;;;11.45;77.87;99807.09;5035876;28;20053;-46
2022/09/27 08:06:03;;;;;;;28.00;5.32;;;;;;;11.47;77.98;99811.09;5038235;28;20049;-46
2022/09/27 08:08:29;;;;;;;28.73;5.20;;;;;;;11.49;77.99;99808.75;5037065;28;20041;-47
2022/09/27 08:10:57;;;;;;;30.08;5.10;;;;;;;11.54;77.96;99816.72;5037295;28;20049;-48
2022/09/27 08:13:24;;;;;;;22.13;5.18;;;;;;;11.57;77.87;99799.34;5020766;28;20051;-46
2022/09/27 08:15:51;;;;;;;28.55;5.32;;;;;;;11.59;77.83;99802.56;5046821;28;20040;-48
2022/09/27 08:18:20;;;;;;;27.30;5.57;;;;;;;11.60;77.75;99804.16;5031825;28;20132;-52
2022/09/27 08:20:47;;;;;;;29.48;4.88;;;;;;;11.65;77.64;99807.78;5057351;28;20037;-46
2022/09/27 08:23:14;;;;;;;26.17;5.20;;;;;;;11.69;77.62;99806.69;5058622;28;20192;-47
2022/09/27 08:25:42;;;;;;;40.35;6.53;;;;;;;11.73;77.47;99806.75;5059504;28;20048;-46
2022/09/27 08:28:09;;;;;;;28.90;5.50;;;;;;;11.76;77.26;99812.31;5064584;28;20108;-44
2022/09/27 08:31:15;;;;;;;26.52;4.80;;;;;;;11.80;77.35;99798.50;5055759;28;20497;-44
2022/09/27 08:33:42;;;;;;;13.45;4.90;;;;;;;11.84;77.28;99800.16;5055513;28;20140;-45
2022/09/27 08:36:12;;;;;;;26.23;4.53;;;;;;;11.90;77.07;99806.97;5050085;28;20044;-45
2022/09/27 08:38:39;;;;;;;29.17;5.55;;;;;;;11.94;76.73;99793.16;5054240;28;20127;-44
2022/09/27 08:45:29;;;;;;;29.67;5.15;;;;;;;12.11;76.74;99796.13;5047982;28;20036;-45
2022/09/27 08:48:03;;;;;;;24.63;4.78;;;;;;;12.24;76.62;99788.34;5035278;28;20052;-45
2022/09/27 08:50:52;;;;;;;29.73;7.70;;;;;;;12.38;76.27;99782.97;5050057;28;20136;-46
2022/09/27 08:58:19;;;;;;;30.90;6.88;;;;;;;12.46;76.07;99784.63;5054242;28;20469;-45
2022/09/27 09:01:15;;;;;;;20.60;7.40;;;;;;;12.42;76.00;99788.53;5042092;28;20061;-45
2022/09/27 09:07:51;;;;;;;25.08;6.03;;;;;;;12.36;75.85;99801.19;5033029;28;20384;-46
2022/09/27 09:18:25;;;;;;;30.70;5.47;;;;;;;12.41;75.57;99796.09;5028504;28;20465;-45
2022/09/27 09:40:04;;;;;;;29.27;4.73;;;;;;;12.78;74.96;99796.84;5029779;28;20048;-46
2022/09/27 09:46:40;;;;;;;27.45;5.70;;;;;;;12.96;74.51;99791.44;5033050;28;20127;-45
2022/09/27 09:49:26;;;;;;;29.58;4.72;;;;;;;12.96;74.33;99785.88;5034900;28;20049;-45
2022/09/27 09:55:35;;;;;;;23.42;4.65;;;;;;;13.00;74.21;99764.47;5034762;28;20050;-45
2022/09/27 09:58:22;;;;;;;22.38;4.50;;;;;;;13.06;74.14;99770.47;5033300;28;20049;-45
2022/09/27 10:04:50;;;;;;;21.25;4.22;;;;;;;13.08;73.69;99771.72;5013228;28;20502;-45
2022/09/27 10:11:00;;;;;;;24.20;5.28;;;;;;;13.08;73.74;99760.59;5031217;28;20434;-49
2022/09/27 10:13:32;;;;;;;23.73;6.03;;;;;;;13.09;73.39;99753.06;5031902;28;20060;-45
2022/09/27 10:24:08;;;;;;;21.83;4.40;;;;;;;13.27;72.69;99748.44;5025776;28;20048;-45
2022/09/27 10:27:02;;;;;;;23.08;4.10;;;;;;;13.22;72.13;99749.59;5015032;28;20511;-45
2022/09/27 10:29:33;;;;;;;30.83;5.55;;;;;;;13.15;72.22;99759.88;5028104;28;20038;-45
2022/09/27 10:32:44;;;;;;;18.48;3.92;;;;;;;13.10;71.97;99749.13;5023931;28;20041;-45
2022/09/27 10:39:18;;;;;;;25.13;5.28;;;;;;;12.88;72.09;99741.75;5021945;28;20045;-46
2022/09/27 10:41:45;;;;;;;22.30;4.72;;;;;;;12.79;72.32;99742.09;5014033;28;20402;-44
2022/09/27 10:44:46;;;;;;;33.15;5.72;;;;;;;12.76;72.44;99738.09;5022424;28;20041;-48
2022/09/27 10:47:21;;;;;;;48.72;6.88;;;;;;;12.78;72.70;99744.09;5031707;28;20055;-49
2022/09/27 10:50:17;;;;;;;35.65;4.90;;;;;;;12.78;72.79;99723.84;5032491;28;20041;-46
2022/09/27 11:01:38;;;;;;;31.13;4.45;;;;;;;12.78;72.93;99721.06;5019535;28;20103;-44
2022/09/27 11:04:36;;;;;;;29.67;6.22;;;;;;;12.79;72.88;99719.84;5056324;28;20053;-44
2022/09/27 11:07:24;;;;;;;23.27;5.78;;;;;;;12.83;73.13;99707.63;5055183;28;20514;-44
2022/09/27 11:10:30;;;;;;;19.63;4.60;;;;;;;12.86;73.10;99708.03;5039050;28;20045;-44
2022/09/27 11:13:23;;;;;;;20.85;5.00;;;;;;;12.88;73.19;99709.22;5046385;28;20492;-44
2022/09/27 11:16:27;;;;;;;31.23;4.70;;;;;;;12.90;73.19;99706.06;5044155;28;20533;-50
2022/09/27 11:19:23;;;;;;;21.77;5.07;;;;;;;12.90;73.53;99690.19;5054367;28;20047;-45
2022/09/27 11:30:43;;;;;;;34.50;6.22;;;;;;;12.44;74.62;99692.63;5040276;28;20029;-45
2022/09/27 11:33:31;;;;;;;25.35;6.63;;;;;;;12.37;74.68;99705.59;5050906;28;20041;-43
2022/09/27 11:36:13;;;;;;;22.23;4.53;;;;;;;12.31;74.94;99699.59;5051451;28;20483;-46
2022/09/27 11:39:09;;;;;;;20.55;4.43;;;;;;;12.25;75.26;99701.16;5053265;28;20072;-44
2022/09/27 11:41:59;;;;;;;27.45;4.70;;;;;;;12.18;75.66;99690.75;5038749;28;20067;-49
2022/09/27 11:44:38;;;;;;;20.75;4.30;;;;;;;12.15;76.32;99687.97;5001968;28;20095;-45
2022/09/27 11:55:02;;;;;;;27.42;8.00;;;;;;;12.28;76.54;99688.50;5041087;28;20411;-44
2022/09/27 11:58:32;;;;;;;22.73;5.22;;;;;;;12.28;76.86;99680.97;5052172;28;20041;-44
2022/09/27 12:01:41;;;;;;;25.23;4.85;;;;;;;12.31;76.74;99676.63;5051064;28;20044;-44
2022/09/27 12:04:47;;;;;;;21.40;3.97;;;;;;;12.32;76.41;99670.69;5052954;28;20064;-44
2022/09/27 12:07:48;;;;;;;18.23;3.63;;;;;;;12.40;76.07;99666.78;5040051;28;20056;-46
2022/09/27 12:15:00;;;;;;;20.00;4.22;;;;;;;12.61;75.37;99680.84;5036007;28;20390;-43
2022/09/27 12:17:59;;;;;;;20.77;4.20;;;;;;;12.70;75.28;99678.56;5039180;28;20053;-48
2022/09/27 12:24:23;;;;;;;18.42;3.60;;;;;;;12.71;75.08;99685.69;5043214;28;20029;-47
2022/09/27 12:30:47;;;;;;;28.48;4.63;;;;;;;12.65;74.92;99665.03;5053125;28;20033;-46
2022/09/27 12:33:29;;;;;;;13.32;3.88;;;;;;;12.64;74.76;99680.09;5050403;28;20044;-49
2022/09/27 12:43:33;;;;;;;19.27;3.63;;;;;;;12.61;75.18;99664.19;5049789;28;20087;-44
2022/09/27 12:54:34;;;;;;;14.70;4.15;;;;;;;13.10;75.01;99662.97;5050985;28;20045;-45
2022/09/27 13:01:33;;;;;;;24.88;4.18;;;;;;;13.29;74.73;99640.44;5049564;28;20036;-44
2022/09/27 13:04:09;;;;;;;15.82;3.22;;;;;;;13.41;74.54;99642.88;5050605;28;20071;-45
2022/09/27 13:06:51;;;;;;;17.48;3.30;;;;;;;13.43;74.16;99649.63;5054510;28;20139;-47
2022/09/27 13:09:50;;;;;;;20.15;3.67;;;;;;;13.41;74.12;99643.69;5049651;28;20049;-43
2022/09/27 13:12:24;;;;;;;24.55;3.58;;;;;;;13.40;73.97;99644.06;5047921;28;20143;-46
2022/09/27 13:18:51;;;;;;;16.98;4.25;;;;;;;13.40;73.55;99641.25;5040688;28;20127;-46
2022/09/27 13:21:43;;;;;;;23.42;3.55;;;;;;;13.38;73.48;99632.53;5053709;28;20049;-44
2022/09/27 13:24:41;;;;;;;22.93;3.40;;;;;;;13.41;73.24;99626.19;5055813;28;20128;-46
2022/09/27 13:27:26;;;;;;;10.77;3.97;;;;;;;13.42;73.08;99625.78;5045778;28;20132;-45
2022/09/27 13:33:49;;;;;;;17.27;3.65;;;;;;;13.41;72.79;99627.00;5054360;28;20429;-46
2022/09/27 13:36:18;;;;;;;17.45;4.97;;;;;;;13.43;72.77;99621.03;5055038;28;20041;-45
2022/09/27 13:39:03;;;;;;;18.90;5.10;;;;;;;13.41;72.74;99618.66;5054762;28;20048;-45
2022/09/27 13:53:38;;;;;;;12.48;3.65;;;;;;;13.43;72.55;99623.81;5045583;28;20064;-43
2022/09/27 13:56:47;;;;;;;13.73;4.40;;;;;;;13.47;72.31;99609.94;5053359;28;20040;-45
2022/09/27 14:03:34;;;;;;;13.73;3.88;;;;;;;13.46;72.12;99620.25;5046987;28;20049;-43
2022/09/27 14:06:27;;;;;;;18.52;4.93;;;;;;;13.48;72.29;99623.44;5051975;28;20471;-42
2022/09/27 14:17:16;;;;;;;16.80;4.25;;;;;;;13.57;71.89;99609.16;5042013;28;20037;-41
2022/09/27 14:20:07;;;;;;;19.15;4.90;;;;;;;13.54;71.83;99616.31;5050765;28;20043;-43
2022/09/27 14:22:54;;;;;;;13.88;3.22;;;;;;;13.53;71.90;99617.47;5053315;28;20033;-44
2022/09/27 14:29:43;;;;;;;19.60;3.58;;;;;;;13.43;71.36;99609.91;5048950;28;20041;-44
2022/09/27 14:32:33;;;;;;;11.82;2.70;;;;;;;13.47;71.26;99605.16;5051040;28;20387;-43
2022/09/27 14:45:59;;;;;;;17.65;3.85;;;;;;;13.61;70.90;99599.63;5054490;28;20044;-43
2022/09/27 14:56:39;;;;;;;21.95;5.20;;;;;;;13.73;70.48;99596.50;5042708;28;20109;-43
2022/09/27 15:06:55;;;;;;;11.85;2.40;;;;;;;13.64;70.37;99595.25;5036592;28;20045;-43
2022/09/27 15:09:23;;;;;;;20.70;3.25;;;;;;;13.63;70.42;99602.84;5053823;28;20045;-44
2022/09/27 15:15:34;;;;;;;11.98;2.78;;;;;;;13.58;70.33;99600.41;5052274;28;20040;-44